createdAt,value
2024-03-13T00:00:11.165Z,14.45
2024-03-13T00:02:46.166Z,14.68
2024-03-13T00:05:12.944Z,13.20
2024-03-13T00:07:39.964Z,14.85
2024-03-13T00:10:09.539Z,14.50
2024-03-13T00:12:36.524Z,13.40
2024-03-13T00:15:06.876Z,13.65
2024-03-13T00:17:33.419Z,15.00
2024-03-13T00:20:00.532Z,14.50
2024-03-13T00:22:27.308Z,14.85
2024-03-13T00:24:55.613Z,15.32
2024-03-13T00:27:22.220Z,13.40
2024-03-13T00:29:49.262Z,14.15
2024-03-13T00:32:17.629Z,15.30
2024-03-13T00:34:47.416Z,13.68
2024-03-13T00:37:15.630Z,13.63
2024-03-13T00:39:42.986Z,14.88
2024-03-13T00:42:13.316Z,14.15
2024-03-13T00:44:40.594Z,14.13
2024-03-13T00:47:12.676Z,14.45
2024-03-13T00:49:39.547Z,13.98
2024-03-13T00:52:06.629Z,14.40
2024-03-13T00:54:33.273Z,15.02
2024-03-13T00:57:00.400Z,14.45
2024-03-13T00:59:30.852Z,14.90
2024-03-13T01:01:57.676Z,15.05
2024-03-13T01:04:27.634Z,14.88
2024-03-13T01:06:54.255Z,14.23
2024-03-13T01:09:21.435Z,14.52
2024-03-13T01:11:48.049Z,15.20
2024-03-13T01:14:15.034Z,14.82
2024-03-13T01:16:42.282Z,15.38
2024-03-13T01:19:08.759Z,14.40
2024-03-13T01:21:35.254Z,15.65
2024-03-13T01:24:01.821Z,14.95
2024-03-13T01:26:28.273Z,15.13
2024-03-13T01:28:54.878Z,14.15
2024-03-13T01:31:22.834Z,13.60
2024-03-13T01:33:49.283Z,15.65
2024-03-13T01:36:18.809Z,14.23
2024-03-13T01:38:45.203Z,14.40
2024-03-13T01:41:44.230Z,14.88
2024-03-13T01:44:29.260Z,14.82
2024-03-13T01:47:14.338Z,15.40
2024-03-13T01:49:59.233Z,15.80
2024-03-13T01:52:44.137Z,15.30
2024-03-13T01:55:12.908Z,15.93
2024-03-13T01:57:57.154Z,18.15
2024-03-13T02:00:43.551Z,16.05
2024-03-13T02:03:10.796Z,15.35
2024-03-13T02:05:38.046Z,16.90
2024-03-13T02:08:07.546Z,17.33
2024-03-13T02:10:34.095Z,16.33
2024-03-13T02:13:13.846Z,18.00
2024-03-13T02:15:42.304Z,16.83
2024-03-13T02:18:18.129Z,18.13
2024-03-13T02:20:47.568Z,15.57
2024-03-13T02:23:21.077Z,17.38
2024-03-13T02:25:47.462Z,17.30
2024-03-13T02:28:15.829Z,16.67
2024-03-13T02:30:43.463Z,18.20
2024-03-13T02:33:12.673Z,16.38
2024-03-13T02:35:39.679Z,16.85
2024-03-13T02:38:08.642Z,16.45
2024-03-13T02:40:35.076Z,17.45
2024-03-13T02:43:01.578Z,17.17
2024-03-13T02:45:28.361Z,17.60
2024-03-13T02:47:54.989Z,17.13
2024-03-13T02:50:21.469Z,16.60
2024-03-13T02:52:47.860Z,16.63
2024-03-13T02:55:15.144Z,17.25
2024-03-13T02:57:41.979Z,18.48
2024-03-13T03:00:08.612Z,17.50
2024-03-13T03:02:36.142Z,18.60
2024-03-13T03:05:04.417Z,17.42
2024-03-13T03:07:33.467Z,19.50
2024-03-13T03:10:00.844Z,18.27
2024-03-13T03:12:29.886Z,17.52
2024-03-13T03:14:56.292Z,18.45
2024-03-13T03:17:23.299Z,16.45
2024-03-13T03:19:52.561Z,17.23
2024-03-13T03:22:19.704Z,17.92
2024-03-13T03:24:46.829Z,17.45
2024-03-13T03:27:14.000Z,18.23
2024-03-13T03:29:43.045Z,18.40
2024-03-13T03:32:10.380Z,16.83
2024-03-13T03:34:36.841Z,17.45
2024-03-13T03:37:03.272Z,18.88
2024-03-13T03:39:30.432Z,17.98
2024-03-13T03:41:58.522Z,16.95
2024-03-13T03:44:24.955Z,17.52
2024-03-13T03:46:51.333Z,17.33
2024-03-13T03:49:17.753Z,17.48
2024-03-13T03:51:45.623Z,17.40
2024-03-13T03:54:12.423Z,18.67
2024-03-13T03:56:40.561Z,17.35
2024-03-13T03:59:11.050Z,16.17
2024-03-13T04:01:37.575Z,16.50
2024-03-13T04:04:07.119Z,17.33
2024-03-13T04:06:33.736Z,17.35
2024-03-13T04:09:00.276Z,16.67
2024-03-13T04:11:26.809Z,18.20
2024-03-13T04:13:53.190Z,16.92
2024-03-13T04:16:19.689Z,16.60
2024-03-13T04:18:46.155Z,17.40
2024-03-13T04:21:15.450Z,16.17
2024-03-13T04:23:47.453Z,16.73
2024-03-13T04:26:16.150Z,16.58
2024-03-13T04:28:45.753Z,16.27
2024-03-13T04:31:14.969Z,17.60
2024-03-13T04:33:42.657Z,17.67
2024-03-13T04:36:09.305Z,16.48
2024-03-13T04:38:35.680Z,16.60
2024-03-13T04:41:02.117Z,16.52
2024-03-13T04:43:28.751Z,17.27
2024-03-13T04:45:55.286Z,16.00
2024-03-13T04:48:21.693Z,14.95
2024-03-13T04:50:48.113Z,16.40
2024-03-13T04:53:16.104Z,15.98
2024-03-13T04:55:42.558Z,17.25
2024-03-13T04:58:09.035Z,15.75
2024-03-13T05:00:35.423Z,14.77
2024-03-13T05:03:01.832Z,14.60
2024-03-13T05:05:28.208Z,15.77
2024-03-13T05:07:56.106Z,15.70
2024-03-13T05:10:23.907Z,15.57
2024-03-13T05:12:50.329Z,15.75
2024-03-13T05:15:16.791Z,15.52
2024-03-13T05:17:43.189Z,15.75
2024-03-13T05:20:12.364Z,15.60
2024-03-13T05:22:38.985Z,15.95
2024-03-13T05:25:12.528Z,15.80
2024-03-13T05:27:38.967Z,14.85
2024-03-13T05:30:07.333Z,13.35
2024-03-13T05:32:33.712Z,15.35
2024-03-13T05:35:00.178Z,15.02
2024-03-13T05:37:26.786Z,16.88
2024-03-13T05:39:53.674Z,15.20
2024-03-13T05:42:20.185Z,17.05
2024-03-13T05:44:46.558Z,15.00
2024-03-13T05:47:13.015Z,16.30
2024-03-13T05:49:39.491Z,15.85
2024-03-13T05:52:06.146Z,15.68
2024-03-13T05:54:33.341Z,16.00
2024-03-13T05:56:59.868Z,17.33
2024-03-13T05:59:27.081Z,17.30
2024-03-13T06:01:56.211Z,16.35
2024-03-13T06:04:23.487Z,16.00
2024-03-13T06:06:49.925Z,15.90
2024-03-13T06:09:19.650Z,15.90
2024-03-13T06:11:46.084Z,16.15
2024-03-13T06:14:12.536Z,16.95
2024-03-13T06:16:39.010Z,15.73
2024-03-13T06:19:06.106Z,15.63
2024-03-13T06:21:32.566Z,16.05
2024-03-13T06:24:01.808Z,16.70
2024-03-13T06:26:29.065Z,17.85
2024-03-13T06:29:21.595Z,17.23
2024-03-13T06:31:48.031Z,14.77
2024-03-13T06:34:14.459Z,16.45
2024-03-13T06:36:40.863Z,16.85
2024-03-13T06:39:13.092Z,17.23
2024-03-13T06:41:39.477Z,16.33
2024-03-13T06:44:06.635Z,16.15
2024-03-13T06:46:34.432Z,17.15
2024-03-13T06:49:00.864Z,15.07
2024-03-13T06:51:27.351Z,17.85
2024-03-13T06:53:53.733Z,18.48
2024-03-13T06:56:20.091Z,17.92
2024-03-13T06:58:46.990Z,16.73
2024-03-13T07:01:17.056Z,18.23
2024-03-13T07:03:43.698Z,17.50
2024-03-13T07:06:12.895Z,17.50
2024-03-13T07:08:39.819Z,17.85
2024-03-13T07:11:09.824Z,16.50
2024-03-13T07:13:36.504Z,17.70
2024-03-13T07:16:03.097Z,17.35
2024-03-13T07:18:30.018Z,18.02
2024-03-13T07:20:56.517Z,17.65
2024-03-13T07:23:23.081Z,19.25
2024-03-13T07:25:56.444Z,17.15
2024-03-13T07:28:23.100Z,15.85
2024-03-13T07:30:49.723Z,18.38
2024-03-13T07:33:16.594Z,17.58
2024-03-13T07:35:43.142Z,16.90
2024-03-13T07:38:10.932Z,17.27
2024-03-13T07:40:41.079Z,18.02
2024-03-13T07:43:11.008Z,16.35
2024-03-13T07:45:38.579Z,15.27
2024-03-13T07:48:11.835Z,16.42
2024-03-13T07:50:40.348Z,15.65
2024-03-13T07:53:07.190Z,15.07
2024-03-13T07:55:34.029Z,14.60
2024-03-13T07:58:01.537Z,13.30
2024-03-13T08:00:30.681Z,14.43
2024-03-13T08:02:57.313Z,14.38
2024-03-13T08:05:23.869Z,13.98
2024-03-13T09:08:06.305Z,13.82
2024-03-13T09:10:33.060Z,13.07
2024-03-13T09:12:59.711Z,11.80
2024-03-13T09:15:26.159Z,10.05
2024-03-13T09:17:52.744Z,9.98
2024-03-13T09:20:19.665Z,11.20
2024-03-13T09:22:46.135Z,10.43
2024-03-13T09:25:15.824Z,9.63
2024-03-13T09:27:42.289Z,10.88
2024-03-13T09:30:09.718Z,10.38
2024-03-13T09:32:37.230Z,10.85
2024-03-13T09:35:05.296Z,10.18
2024-03-13T09:37:32.671Z,10.85
2024-03-13T09:39:59.483Z,11.25
2024-03-13T09:42:28.431Z,10.90
2024-03-13T09:44:57.052Z,9.60
2024-03-13T09:47:28.050Z,9.80
2024-03-13T09:49:57.035Z,9.20
2024-03-13T09:52:25.492Z,10.18
2024-03-13T09:54:52.615Z,9.02
2024-03-13T09:57:20.910Z,10.52
2024-03-13T09:59:48.029Z,9.10
2024-03-13T10:02:22.663Z,9.68
2024-03-13T10:04:49.953Z,9.40
2024-03-13T10:07:22.903Z,8.70
2024-03-13T10:09:49.783Z,8.20
2024-03-13T10:12:23.405Z,9.68
2024-03-13T10:14:53.618Z,8.38
2024-03-13T10:17:24.384Z,8.00
2024-03-13T10:19:53.754Z,8.73
2024-03-13T10:22:21.430Z,8.57
2024-03-13T10:24:53.202Z,8.13
2024-03-13T10:27:21.691Z,7.95
2024-03-13T10:29:49.779Z,7.50
2024-03-13T10:32:18.874Z,6.43
2024-03-13T10:34:47.713Z,7.07
2024-03-13T10:37:15.228Z,7.10
2024-03-13T10:39:42.725Z,7.78
2024-03-13T10:42:10.207Z,7.30
2024-03-13T10:44:37.087Z,7.47
2024-03-13T10:47:03.769Z,6.90
2024-03-13T10:49:30.542Z,7.57
2024-03-13T10:52:00.112Z,7.38
2024-03-13T10:54:27.871Z,7.13
2024-03-13T10:56:54.306Z,7.03
2024-03-13T10:59:24.667Z,8.07
2024-03-13T11:01:53.422Z,7.28
2024-03-13T11:04:21.451Z,8.00
2024-03-13T11:06:48.036Z,7.68
2024-03-13T11:09:23.775Z,8.50
2024-03-13T11:11:53.275Z,7.85
2024-03-13T11:14:28.029Z,7.30
2024-03-13T11:16:58.218Z,7.93
2024-03-13T11:19:33.487Z,7.05
2024-03-13T11:22:04.789Z,7.70
2024-03-13T11:24:33.005Z,7.68
2024-03-13T11:27:12.271Z,6.63
2024-03-13T11:29:46.277Z,6.25
2024-03-13T11:32:14.163Z,6.57
2024-03-13T11:34:43.777Z,6.47
2024-03-13T11:37:12.312Z,6.07
2024-03-13T11:39:40.455Z,6.15
2024-03-13T11:42:17.362Z,6.57
2024-03-13T11:47:16.279Z,6.40
2024-03-13T11:49:42.711Z,7.25
2024-03-13T11:52:11.056Z,6.90
2024-03-13T11:54:44.678Z,7.05
2024-03-13T11:57:16.051Z,7.82
2024-03-13T11:59:44.892Z,6.28
2024-03-13T12:02:29.867Z,6.53
2024-03-13T12:05:13.003Z,6.57
2024-03-13T12:10:19.373Z,6.63
2024-03-13T12:12:46.738Z,5.57
2024-03-13T12:15:21.147Z,6.50
2024-03-13T12:17:50.935Z,7.00
2024-03-13T12:20:23.853Z,6.80
2024-03-13T12:22:51.275Z,8.02
2024-03-13T12:25:20.844Z,6.82
2024-03-13T12:27:48.796Z,7.78
2024-03-13T12:30:16.430Z,6.72
2024-03-13T12:32:43.443Z,7.63
2024-03-13T12:35:11.717Z,6.97
2024-03-13T12:37:40.974Z,6.90
2024-03-13T12:40:13.265Z,7.53
2024-03-13T12:42:42.870Z,7.70
2024-03-13T12:45:12.642Z,7.38
2024-03-13T12:47:39.656Z,7.47
2024-03-13T12:50:07.642Z,8.23
2024-03-13T12:52:36.532Z,8.15
2024-03-13T12:55:05.541Z,7.97
2024-03-13T12:57:37.717Z,8.10
2024-03-13T13:00:15.803Z,7.35
2024-03-13T13:02:46.020Z,7.53
2024-03-13T13:05:13.885Z,7.32
2024-03-13T13:07:51.133Z,7.47
2024-03-13T13:10:21.746Z,7.40
2024-03-13T13:12:51.784Z,7.55
2024-03-13T13:15:18.813Z,8.43
2024-03-13T13:17:45.620Z,7.90
2024-03-13T13:20:16.981Z,7.28
2024-03-13T13:22:46.721Z,7.50
2024-03-13T13:25:21.312Z,8.13
2024-03-13T13:27:49.228Z,8.55
2024-03-13T13:30:16.942Z,7.30
2024-03-13T13:32:43.621Z,7.22
2024-03-13T13:35:12.031Z,8.13
2024-03-13T13:37:39.655Z,6.82
2024-03-13T13:40:23.888Z,7.80
2024-03-13T13:42:53.302Z,7.80
2024-03-13T13:45:26.373Z,8.43
2024-03-13T13:47:54.129Z,8.55
2024-03-13T13:50:21.999Z,9.10
2024-03-13T13:52:48.692Z,8.57
2024-03-13T13:55:19.430Z,8.05
2024-03-13T13:57:52.710Z,8.32
2024-03-13T14:00:22.376Z,8.80
2024-03-13T14:02:50.208Z,8.90
2024-03-13T14:05:18.360Z,8.80
2024-03-13T14:07:45.678Z,8.30
2024-03-13T14:10:13.337Z,8.35
2024-03-13T14:12:42.048Z,9.43
2024-03-13T14:15:12.443Z,8.90
2024-03-13T14:17:39.562Z,9.98
2024-03-13T14:20:27.274Z,11.15
2024-03-13T14:22:55.637Z,11.23
2024-03-13T14:25:23.696Z,10.23
2024-03-13T14:27:50.488Z,11.68
2024-03-13T14:30:18.497Z,11.90
2024-03-13T14:32:45.774Z,11.27
2024-03-13T14:35:12.656Z,10.50
2024-03-13T14:37:39.149Z,10.98
2024-03-13T14:40:07.237Z,10.50
2024-03-13T14:42:34.847Z,11.43
2024-03-13T14:45:02.945Z,10.48
2024-03-13T14:47:29.544Z,10.35
2024-03-13T14:49:56.111Z,10.30
2024-03-13T14:52:22.889Z,10.43
2024-03-13T14:54:50.027Z,10.77
2024-03-13T14:57:16.667Z,9.77
2024-03-13T14:59:43.201Z,9.85
2024-03-13T15:02:09.648Z,10.60
2024-03-13T15:04:36.005Z,10.52
2024-03-13T15:07:05.293Z,9.60
2024-03-13T15:09:31.853Z,9.70
2024-03-13T15:11:58.336Z,8.63
2024-03-13T15:14:24.839Z,7.35
2024-03-13T15:16:53.893Z,7.70
2024-03-13T15:19:20.475Z,7.15
2024-03-13T15:21:47.009Z,8.48
2024-03-13T15:24:14.270Z,8.43
2024-03-13T15:26:42.589Z,8.18
2024-03-13T15:29:09.163Z,8.45
2024-03-13T15:31:35.880Z,8.90
2024-03-13T15:34:02.445Z,9.43
2024-03-13T15:36:29.109Z,8.18
2024-03-13T15:38:55.800Z,7.38
2024-03-13T15:41:22.249Z,8.15
2024-03-13T15:43:48.639Z,9.38
2024-03-13T15:46:15.038Z,8.73
2024-03-13T15:48:42.242Z,8.30
2024-03-13T15:51:08.786Z,8.02
2024-03-13T15:53:35.306Z,8.63
2024-03-13T15:56:01.789Z,7.60
2024-03-13T15:58:28.167Z,7.82
2024-03-13T16:00:55.003Z,7.32
2024-03-13T16:03:21.900Z,7.10
2024-03-13T16:05:50.111Z,7.60
2024-03-13T16:08:36.003Z,7.57
2024-03-13T16:11:02.440Z,6.80
2024-03-13T16:13:28.909Z,7.80
2024-03-13T16:15:55.306Z,7.35
2024-03-13T16:18:21.868Z,6.90
2024-03-13T16:20:49.349Z,6.95
2024-03-13T16:23:15.776Z,7.57
2024-03-13T16:25:42.743Z,7.15
2024-03-13T16:28:09.975Z,7.43
2024-03-13T16:30:36.339Z,6.82
2024-03-13T16:33:03.651Z,7.32
2024-03-13T16:35:30.117Z,7.22
2024-03-13T16:37:56.617Z,6.45
2024-03-13T16:40:23.045Z,7.38
2024-03-13T16:42:49.415Z,7.15
2024-03-13T16:45:18.759Z,6.43
2024-03-13T16:47:45.492Z,7.63
2024-03-13T16:50:16.077Z,6.65
2024-03-13T16:52:43.590Z,6.90
2024-03-13T16:55:10.145Z,6.22
2024-03-13T16:57:36.547Z,7.07
2024-03-13T17:00:06.450Z,7.68
2024-03-13T17:02:32.881Z,6.63
2024-03-13T17:04:59.365Z,7.07
2024-03-13T17:07:26.999Z,7.28
2024-03-13T17:09:53.438Z,7.15
2024-03-13T17:12:20.202Z,7.53
2024-03-13T17:14:47.107Z,6.57
2024-03-13T17:17:13.533Z,6.53
2024-03-13T17:19:40.029Z,7.13
2024-03-13T17:22:06.988Z,7.70
2024-03-13T17:24:33.436Z,7.43
2024-03-13T17:26:59.913Z,7.63
2024-03-13T17:29:27.642Z,7.15
2024-03-13T17:31:55.159Z,7.38
2024-03-13T17:34:21.689Z,7.70
2024-03-13T17:36:49.737Z,7.13
2024-03-13T17:39:19.414Z,7.85
2024-03-13T17:41:46.808Z,8.07
2024-03-13T17:44:18.621Z,8.27
2024-03-13T17:46:46.250Z,8.25
2024-03-13T17:49:12.618Z,7.65
2024-03-13T17:51:39.014Z,8.15
2024-03-13T17:54:06.160Z,8.18
2024-03-13T17:56:33.089Z,7.88
2024-03-13T17:59:02.822Z,8.93
2024-03-13T18:01:32.313Z,9.20
2024-03-13T18:03:58.788Z,9.02
2024-03-13T18:06:28.204Z,9.13
2024-03-13T18:08:54.720Z,8.85
2024-03-13T18:11:21.350Z,10.00
2024-03-13T18:13:47.893Z,8.75
2024-03-13T18:16:14.413Z,9.73
2024-03-13T18:18:41.090Z,9.95
2024-03-13T18:21:10.355Z,9.07
2024-03-13T18:23:36.857Z,9.70
2024-03-13T18:26:03.383Z,9.30
2024-03-13T18:28:30.052Z,9.00
2024-03-13T18:30:56.624Z,9.05
2024-03-13T18:33:23.125Z,9.13
2024-03-13T18:35:49.599Z,9.48
2024-03-13T18:38:16.019Z,9.95
2024-03-13T18:40:42.519Z,9.82
2024-03-13T18:43:08.884Z,10.88
2024-03-13T18:45:35.798Z,10.20
2024-03-13T18:48:02.461Z,10.48
2024-03-13T18:50:30.815Z,10.13
2024-03-13T18:52:57.869Z,10.43
2024-03-13T18:55:26.795Z,10.02
2024-03-13T18:57:53.548Z,10.85
2024-03-13T19:00:22.634Z,11.75
2024-03-13T19:02:49.646Z,11.80
2024-03-13T19:05:23.583Z,11.60
2024-03-13T19:07:52.422Z,11.88
2024-03-13T19:10:24.771Z,12.55
2024-03-13T19:12:56.406Z,12.57
2024-03-13T19:15:23.044Z,12.60
2024-03-13T19:17:49.739Z,12.50
2024-03-13T19:20:16.282Z,12.50
2024-03-13T19:22:44.008Z,11.85
2024-03-13T19:25:13.607Z,12.55
2024-03-13T19:27:40.014Z,11.95
2024-03-13T19:30:08.153Z,13.32
2024-03-13T19:32:35.131Z,12.48
2024-03-13T19:35:01.832Z,12.10
2024-03-13T19:37:28.247Z,12.98
2024-03-13T19:39:59.366Z,12.07
2024-03-13T19:42:25.929Z,11.30
2024-03-13T19:44:53.076Z,12.00
2024-03-13T19:47:20.062Z,12.68
2024-03-13T19:49:46.679Z,12.90
2024-03-13T19:52:13.175Z,12.43
2024-03-13T19:54:39.580Z,12.57
2024-03-13T19:57:06.597Z,12.98
2024-03-13T19:59:33.074Z,13.63
2024-03-13T20:01:59.574Z,12.20
2024-03-13T20:04:26.102Z,12.98
2024-03-13T20:06:54.954Z,12.82
2024-03-13T20:09:21.354Z,12.52
2024-03-13T20:11:47.855Z,12.52
2024-03-13T20:14:16.926Z,13.05
2024-03-13T20:16:44.816Z,11.82
2024-03-13T20:19:11.378Z,12.13
2024-03-13T20:21:38.569Z,12.27
2024-03-13T20:24:05.540Z,12.90
2024-03-13T20:26:32.402Z,12.98
2024-03-13T20:28:58.809Z,11.88
2024-03-13T20:31:25.391Z,12.07
2024-03-13T20:33:52.597Z,10.82
2024-03-13T20:36:20.005Z,11.73
2024-03-13T20:38:46.936Z,11.23
2024-03-13T20:41:14.333Z,11.93
2024-03-13T20:43:41.024Z,12.15
2024-03-13T20:46:12.915Z,11.90
2024-03-13T20:48:39.414Z,11.63
2024-03-13T20:51:06.024Z,11.30
2024-03-13T20:53:32.625Z,12.07
2024-03-13T20:56:00.290Z,11.85
2024-03-13T20:58:26.996Z,11.68
2024-03-13T21:00:53.763Z,11.52
2024-03-13T21:03:20.270Z,11.13
2024-03-13T21:05:47.042Z,11.88
2024-03-13T21:08:14.150Z,11.85
2024-03-13T21:10:43.350Z,11.18
2024-03-13T21:13:10.543Z,13.07
2024-03-13T21:15:42.778Z,11.25
2024-03-13T21:18:13.234Z,11.90
2024-03-13T21:20:39.808Z,12.00
2024-03-13T21:23:06.317Z,12.35
2024-03-13T21:25:33.161Z,12.27
2024-03-13T21:27:59.770Z,11.50
2024-03-13T21:30:26.388Z,12.10
2024-03-13T21:32:53.132Z,11.30
2024-03-13T21:35:19.830Z,12.32
2024-03-13T21:37:46.435Z,12.10
2024-03-13T21:40:18.651Z,10.00
2024-03-13T21:42:46.152Z,11.77
2024-03-13T21:45:12.721Z,11.63
2024-03-13T21:47:39.515Z,12.05
2024-03-13T21:50:06.812Z,11.77
2024-03-13T21:52:33.290Z,11.73
2024-03-13T21:54:59.710Z,11.95
2024-03-13T21:57:26.439Z,12.50
2024-03-13T21:59:53.012Z,11.75
2024-03-13T22:02:19.510Z,12.00
2024-03-13T22:04:45.896Z,10.75
2024-03-13T22:07:13.084Z,12.38
2024-03-13T22:09:39.506Z,11.77
2024-03-13T22:12:07.094Z,13.57
2024-03-13T22:14:33.530Z,12.63
2024-03-13T22:17:00.303Z,11.35
2024-03-13T22:19:26.923Z,12.48
2024-03-13T22:21:53.710Z,12.18
2024-03-13T22:24:20.340Z,11.88
2024-03-13T22:26:47.215Z,13.02
2024-03-13T22:29:13.833Z,12.75
2024-03-13T22:31:43.119Z,12.90
2024-03-13T22:34:10.009Z,12.02
2024-03-13T22:36:36.468Z,12.35
2024-03-13T22:39:06.374Z,11.35
2024-03-13T22:41:32.986Z,12.38
2024-03-13T22:43:59.537Z,12.23
2024-03-13T22:46:25.934Z,12.15
2024-03-13T22:48:52.504Z,12.23
2024-03-13T22:51:19.041Z,12.85
2024-03-13T22:53:47.084Z,12.52
2024-03-13T22:56:13.711Z,11.93
2024-03-13T22:58:40.205Z,12.13
2024-03-13T23:01:10.238Z,12.07
2024-03-13T23:03:37.659Z,12.05
2024-03-13T23:06:04.599Z,11.10
2024-03-13T23:08:31.588Z,12.10
2024-03-13T23:10:58.009Z,12.82
2024-03-13T23:13:24.620Z,11.32
2024-03-13T23:15:51.067Z,12.18
2024-03-13T23:18:18.515Z,12.32
2024-03-13T23:20:45.843Z,12.13
2024-03-13T23:23:12.451Z,12.70
2024-03-13T23:25:39.000Z,12.07
2024-03-13T23:28:07.491Z,12.30
2024-03-13T23:30:34.316Z,12.20
2024-03-13T23:33:00.956Z,11.65
2024-03-13T23:35:27.513Z,11.65
2024-03-13T23:37:54.031Z,10.88
2024-03-13T23:40:20.523Z,11.55
2024-03-13T23:42:52.011Z,11.95
2024-03-13T23:45:18.491Z,11.40
2024-03-13T23:47:48.106Z,12.38
2024-03-13T23:50:16.790Z,13.75
2024-03-13T23:52:46.277Z,12.00
2024-03-13T23:55:13.687Z,12.77
2024-03-13T23:57:43.628Z,11.80
